Time;durP1;ratioP1;P1;durP2;ratioP2;P2;SDS_P1;SDS_P2;PMS_P1;PMS_P2;Temp;Humidity;BMP_temperature;BMP_pressure;BME280_temperature;BME280_humidity;BME280_pressure;Samples;Min_cycle;Max_cycle;Signal;HPM_P1;HPM_P2
2022/03/10 00:01:45;;;;;;;45.75;25.23;;;6.10;27.10;;;;;;5006873;28;25095;-75
2022/03/10 00:04:10;;;;;;;50.28;27.40;;;6.10;27.40;;;;;;5005867;28;25117;-74
2022/03/10 00:06:36;;;;;;;48.13;26.65;;;6.10;27.90;;;;;;5006699;28;25069;-74
2022/03/10 00:09:02;;;;;;;47.15;26.05;;;6.10;27.90;;;;;;4988321;28;25120;-74
2022/03/10 00:11:28;;;;;;;50.97;26.92;;;6.10;28.00;;;;;;5006758;28;25144;-74
2022/03/10 00:13:54;;;;;;;47.55;25.40;;;6.10;28.10;;;;;;4988413;28;25063;-74
2022/03/10 00:16:20;;;;;;;49.10;25.80;;;6.00;28.20;;;;;;5007605;28;25070;-75
2022/03/10 00:18:46;;;;;;;53.50;26.08;;;6.10;28.20;;;;;;5007163;28;25081;-74
2022/03/10 00:21:12;;;;;;;48.80;26.27;;;6.10;28.00;;;;;;5007999;28;25090;-74
2022/03/10 00:23:37;;;;;;;49.08;25.17;;;6.10;28.40;;;;;;5008182;28;25059;-75
2022/03/10 00:26:03;;;;;;;47.05;25.23;;;6.10;28.50;;;;;;5008556;28;25063;-74
2022/03/10 00:28:29;;;;;;;48.55;24.92;;;6.10;28.60;;;;;;4974693;28;25086;-75
2022/03/10 00:30:54;;;;;;;44.80;25.63;;;6.00;29.30;;;;;;5007991;28;25109;-73
2022/03/10 00:33:20;;;;;;;46.13;24.13;;;6.00;29.70;;;;;;5007545;28;25133;-74
2022/03/10 00:35:46;;;;;;;52.45;28.08;;;6.00;30.00;;;;;;4999711;28;25096;-75
2022/03/10 00:38:11;;;;;;;44.08;25.92;;;6.00;30.20;;;;;;5009374;28;25076;-73
2022/03/10 00:40:37;;;;;;;47.80;25.67;;;6.00;30.00;;;;;;5010282;28;25061;-73
2022/03/10 00:43:02;;;;;;;48.90;25.35;;;6.10;30.90;;;;;;5009418;28;25091;-72
2022/03/10 00:45:28;;;;;;;46.80;25.40;;;6.10;30.00;;;;;;5009075;28;25107;-73
2022/03/10 00:47:54;;;;;;;46.92;24.80;;;6.10;30.40;;;;;;5008972;28;25067;-73
2022/03/10 00:50:26;;;;;;;49.90;25.80;;;6.00;30.80;;;;;;5009031;28;25046;-73
2022/03/10 00:52:51;;;;;;;53.13;26.17;;;6.00;31.00;;;;;;5005781;28;25097;-74
2022/03/10 00:55:18;;;;;;;49.58;24.35;;;6.00;31.30;;;;;;4996976;28;25119;-74
2022/03/10 00:57:44;;;;;;;47.50;25.40;;;6.00;31.40;;;;;;4990049;28;25068;-75
2022/03/10 01:00:10;;;;;;;53.58;25.05;;;5.90;32.10;;;;;;4990820;28;25088;-73
2022/03/10 01:02:36;;;;;;;50.85;26.13;;;5.90;32.40;;;;;;5007446;28;25064;-73
2022/03/10 01:05:06;;;;;;;45.33;25.52;;;5.90;32.50;;;;;;5007827;28;25114;-74
2022/03/10 01:07:32;;;;;;;49.20;26.45;;;5.90;32.80;;;;;;5007435;28;25069;-74
2022/03/10 01:09:57;;;;;;;45.10;25.42;;;5.80;33.30;;;;;;5007788;28;25062;-74
2022/03/10 01:12:23;;;;;;;48.42;26.88;;;5.80;33.20;;;;;;5001742;28;25118;-75
2022/03/10 01:14:49;;;;;;;53.20;26.30;;;5.90;32.90;;;;;;5004773;28;25130;-74
2022/03/10 01:17:14;;;;;;;44.53;25.13;;;5.90;33.00;;;;;;5007557;28;25146;-74
2022/03/10 01:19:40;;;;;;;49.35;26.15;;;5.80;33.60;;;;;;5006876;28;25057;-75
2022/03/10 01:22:07;;;;;;;49.33;25.77;;;5.80;33.90;;;;;;4988394;28;25136;-74
2022/03/10 01:24:33;;;;;;;50.22;26.98;;;5.70;33.90;;;;;;5007922;28;25059;-74
2022/03/10 01:26:59;;;;;;;46.75;25.17;;;5.70;34.30;;;;;;5013691;28;25057;-74
2022/03/10 01:29:25;;;;;;;51.28;26.65;;;5.70;34.60;;;;;;5020289;28;25094;-74
2022/03/10 01:31:50;;;;;;;48.53;25.85;;;5.70;35.50;;;;;;5016448;28;25115;-74
2022/03/10 01:34:16;;;;;;;44.25;25.48;;;5.70;35.30;;;;;;5013442;28;25066;-74
2022/03/10 01:36:42;;;;;;;48.72;25.92;;;5.70;35.20;;;;;;5012076;28;25099;-73
2022/03/10 01:39:08;;;;;;;52.38;26.52;;;5.70;35.60;;;;;;5010637;28;25053;-73
2022/03/10 01:41:34;;;;;;;51.47;25.65;;;5.70;36.00;;;;;;4993108;28;25060;-73
2022/03/10 01:44:02;;;;;;;49.65;25.42;;;5.70;36.70;;;;;;4992156;28;25119;-74
2022/03/10 01:46:28;;;;;;;55.05;27.15;;;5.60;37.70;;;;;;5001450;28;25056;-74
2022/03/10 01:48:55;;;;;;;43.25;26.38;;;5.60;39.20;;;;;;5009616;28;25146;-74
2022/03/10 01:51:22;;;;;;;44.03;25.48;;;5.50;40.10;;;;;;5009667;28;25049;-74
2022/03/10 01:53:50;;;;;;;47.15;25.75;;;5.50;40.30;;;;;;5009434;28;25077;-73
2022/03/10 01:56:16;;;;;;;49.63;27.25;;;5.50;41.30;;;;;;5009434;28;25070;-73
2022/03/10 01:58:42;;;;;;;55.95;26.83;;;5.30;42.40;;;;;;5009711;28;25077;-74
2022/03/10 02:01:11;;;;;;;44.85;25.85;;;5.30;43.60;;;;;;5009715;28;25069;-74
2022/03/10 02:03:38;;;;;;;52.30;27.00;;;5.20;44.10;;;;;;5008621;28;25093;-74
2022/03/10 02:06:04;;;;;;;45.00;26.23;;;5.20;44.20;;;;;;5009365;28;25104;-74
2022/03/10 02:11:13;;;;;;;48.30;27.17;;;5.10;45.60;;;;;;5009592;28;25059;-74
2022/03/10 02:13:39;;;;;;;47.80;26.77;;;5.10;46.20;;;;;;5009599;28;25053;-75
2022/03/10 02:18:53;;;;;;;49.50;25.70;;;5.00;47.20;;;;;;4994422;28;25157;-74
2022/03/10 02:21:19;;;;;;;51.47;27.50;;;5.00;47.70;;;;;;5009163;28;25057;-74
2022/03/10 02:23:44;;;;;;;48.70;27.63;;;5.00;48.50;;;;;;5010099;28;25070;-74
2022/03/10 02:26:11;;;;;;;52.22;27.40;;;5.00;48.70;;;;;;5009656;28;25090;-74
2022/03/10 02:28:38;;;;;;;47.97;27.15;;;4.90;49.10;;;;;;5006759;28;25090;-73
2022/03/10 02:31:04;;;;;;;49.13;25.83;;;4.90;49.80;;;;;;5008671;28;25167;-73
2022/03/10 02:33:29;;;;;;;46.92;26.40;;;4.90;50.10;;;;;;5009393;28;25109;-74
2022/03/10 02:35:55;;;;;;;51.25;26.58;;;4.90;50.70;;;;;;5009298;28;25129;-74
2022/03/10 02:38:21;;;;;;;50.17;27.08;;;4.90;50.90;;;;;;4996447;28;25119;-73
2022/03/10 02:40:48;;;;;;;46.30;26.85;;;4.90;50.80;;;;;;5017593;28;25085;-75
2022/03/10 02:43:13;;;;;;;44.95;26.73;;;4.90;52.20;;;;;;5015763;28;25064;-73
2022/03/10 02:45:39;;;;;;;49.60;27.73;;;4.80;51.80;;;;;;5011236;28;25076;-74
2022/03/10 02:48:05;;;;;;;48.28;27.70;;;4.90;51.90;;;;;;5009799;28;25082;-75
2022/03/10 02:50:31;;;;;;;47.17;28.13;;;4.80;52.30;;;;;;4991658;28;25157;-74
2022/03/10 02:52:56;;;;;;;49.55;26.73;;;4.80;52.20;;;;;;5008372;28;25113;-74
2022/03/10 02:55:22;;;;;;;49.70;27.00;;;4.70;53.70;;;;;;5009022;28;25120;-74
2022/03/10 02:57:48;;;;;;;47.38;27.33;;;4.60;54.80;;;;;;5008633;28;25094;-74
2022/03/10 03:00:14;;;;;;;51.72;28.35;;;4.60;57.00;;;;;;5009382;28;25087;-74
2022/03/10 03:02:40;;;;;;;49.67;27.48;;;4.50;58.30;;;;;;5009422;28;25107;-74
2022/03/10 03:05:07;;;;;;;48.97;27.67;;;4.50;59.30;;;;;;5009950;28;25074;-75
2022/03/10 03:07:34;;;;;;;51.10;27.42;;;4.50;60.20;;;;;;5010067;28;25104;-74
2022/03/10 03:10:00;;;;;;;46.67;28.63;;;4.50;60.40;;;;;;4993194;28;25071;-75
2022/03/10 03:12:26;;;;;;;49.55;28.85;;;4.50;61.10;;;;;;5008685;28;25077;-74
2022/03/10 03:14:51;;;;;;;54.85;28.05;;;4.50;61.10;;;;;;5004038;28;25078;-75
2022/03/10 03:17:17;;;;;;;51.50;27.48;;;4.50;60.90;;;;;;4996846;28;25062;-74
2022/03/10 03:19:43;;;;;;;50.47;28.13;;;4.50;60.50;;;;;;4990701;28;25062;-74
2022/03/10 03:22:09;;;;;;;53.90;29.20;;;4.40;61.30;;;;;;5001249;28;25071;-74
2022/03/10 03:24:35;;;;;;;53.38;30.02;;;4.30;61.40;;;;;;5003034;28;25085;-74
2022/03/10 03:27:01;;;;;;;48.63;28.73;;;4.40;62.10;;;;;;5008687;28;25105;-74
2022/03/10 03:29:26;;;;;;;53.40;28.42;;;4.40;61.90;;;;;;4990752;28;25143;-75
2022/03/10 03:31:53;;;;;;;52.30;29.58;;;4.40;62.00;;;;;;5008542;28;25058;-73
2022/03/10 03:34:19;;;;;;;53.92;28.77;;;4.40;61.80;;;;;;5008264;28;25062;-74
2022/03/10 03:36:45;;;;;;;52.55;30.40;;;4.30;61.80;;;;;;5008527;28;25139;-74
2022/03/10 03:39:12;;;;;;;51.97;29.60;;;4.30;61.90;;;;;;4990708;28;25058;-75
2022/03/10 03:41:39;;;;;;;53.88;30.13;;;4.10;62.60;;;;;;5007638;28;25085;-73
2022/03/10 03:44:08;;;;;;;58.88;29.92;;;4.00;63.10;;;;;;4990413;28;25051;-74
2022/03/10 03:46:34;;;;;;;48.13;28.15;;;3.90;63.90;;;;;;4990610;28;25068;-73
2022/03/10 03:48:59;;;;;;;59.88;29.40;;;3.80;64.30;;;;;;4991154;28;25068;-75
2022/03/10 03:51:25;;;;;;;56.45;31.08;;;3.70;64.90;;;;;;5007148;28;25044;-74
2022/03/10 03:53:51;;;;;;;54.42;30.50;;;3.70;65.60;;;;;;5007859;28;25066;-74
2022/03/10 03:56:17;;;;;;;56.88;30.30;;;3.60;66.30;;;;;;5008724;28;25164;-74
2022/03/10 03:58:43;;;;;;;54.70;31.02;;;3.50;66.70;;;;;;5008805;28;25058;-73
2022/03/10 04:01:08;;;;;;;53.35;30.20;;;3.50;67.20;;;;;;5016694;28;25062;-74
2022/03/10 04:03:34;;;;;;;54.17;29.55;;;3.50;67.30;;;;;;5015679;28;25060;-75
2022/03/10 04:05:59;;;;;;;53.10;30.02;;;3.50;67.40;;;;;;5008605;28;25133;-75
2022/03/10 04:08:25;;;;;;;49.72;29.98;;;3.50;67.00;;;;;;5008388;28;25070;-75
2022/03/10 04:10:52;;;;;;;55.67;30.10;;;3.50;67.10;;;;;;5008362;28;25049;-75
2022/03/10 04:13:19;;;;;;;60.47;30.90;;;3.50;67.20;;;;;;4992246;28;25172;-75
2022/03/10 04:15:44;;;;;;;56.25;30.17;;;3.40;67.50;;;;;;5010077;28;25104;-73
2022/03/10 04:18:10;;;;;;;63.85;32.63;;;3.50;67.80;;;;;;5008968;28;25081;-73
2022/03/10 04:20:36;;;;;;;55.03;30.25;;;3.40;67.60;;;;;;4991803;28;25065;-74
2022/03/10 04:23:01;;;;;;;55.55;30.35;;;3.40;67.90;;;;;;5009504;28;25063;-74
2022/03/10 04:25:27;;;;;;;55.78;30.73;;;3.40;68.40;;;;;;4992407;28;25082;-75
2022/03/10 04:27:56;;;;;;;54.90;30.30;;;3.40;68.40;;;;;;5010356;28;25147;-74
2022/03/10 04:30:22;;;;;;;62.28;31.08;;;3.30;68.50;;;;;;5008595;28;25056;-75
2022/03/10 04:32:48;;;;;;;54.28;30.05;;;3.20;69.80;;;;;;5008475;28;25084;-74
2022/03/10 04:35:17;;;;;;;56.45;30.27;;;3.30;69.60;;;;;;5007784;28;25069;-74
2022/03/10 04:37:47;;;;;;;53.00;30.33;;;3.30;69.50;;;;;;5009069;28;25048;-75
2022/03/10 04:40:13;;;;;;;51.72;29.67;;;3.30;69.40;;;;;;5007865;28;25072;-74
2022/03/10 04:42:39;;;;;;;52.38;30.40;;;3.20;69.20;;;;;;5008293;28;25143;-74
2022/03/10 04:45:06;;;;;;;53.33;30.17;;;3.30;69.60;;;;;;5008892;28;25073;-75
2022/03/10 04:47:32;;;;;;;54.85;30.80;;;3.30;69.50;;;;;;5008346;28;25138;-74
2022/03/10 04:49:58;;;;;;;58.78;30.90;;;3.20;69.10;;;;;;5008959;28;25107;-75
2022/03/10 04:52:28;;;;;;;57.97;31.92;;;3.10;69.70;;;;;;5008110;28;25172;-73
2022/03/10 04:54:54;;;;;;;54.80;29.88;;;3.10;70.00;;;;;;5008189;28;25085;-74
2022/03/10 04:57:19;;;;;;;57.03;31.05;;;3.00;70.80;;;;;;5010701;28;25096;-74
2022/03/10 04:59:45;;;;;;;53.30;28.52;;;3.00;71.70;;;;;;5009615;28;25079;-75
2022/03/10 05:02:11;;;;;;;51.60;29.42;;;3.00;71.70;;;;;;5012369;28;25070;-74
2022/03/10 05:04:36;;;;;;;49.33;29.95;;;3.00;72.00;;;;;;5011179;28;25089;-75
2022/03/10 05:07:02;;;;;;;65.57;31.75;;;3.00;72.60;;;;;;5012515;28;25088;-74
2022/03/10 05:09:27;;;;;;;57.83;32.08;;;2.90;72.80;;;;;;4996272;28;25057;-75
2022/03/10 05:11:53;;;;;;;53.33;29.98;;;2.90;73.60;;;;;;5015424;28;25088;-75
2022/03/10 05:14:19;;;;;;;55.50;30.80;;;2.90;73.60;;;;;;5003358;28;25074;-74
2022/03/10 05:16:45;;;;;;;56.42;31.35;;;2.90;73.80;;;;;;5031828;28;25099;-74
2022/03/10 05:19:10;;;;;;;52.90;30.58;;;2.90;73.90;;;;;;5032627;28;25097;-74
2022/03/10 05:21:36;;;;;;;50.03;30.00;;;2.90;73.80;;;;;;5014062;28;25096;-73
2022/03/10 05:24:02;;;;;;;62.53;29.80;;;2.90;73.80;;;;;;5031215;28;25080;-74
2022/03/10 05:26:28;;;;;;;55.25;29.35;;;2.90;73.70;;;;;;5032661;28;25074;-75
2022/03/10 05:28:53;;;;;;;51.83;29.58;;;2.80;73.80;;;;;;5025406;28;25059;-77
2022/03/10 05:31:19;;;;;;;54.15;29.23;;;2.80;74.00;;;;;;5036209;28;25065;-75
2022/03/10 05:33:44;;;;;;;56.67;30.65;;;2.80;74.00;;;;;;5017618;28;25078;-75
2022/03/10 05:36:10;;;;;;;54.60;31.80;;;2.80;74.10;;;;;;5025938;28;25063;-74
2022/03/10 05:38:36;;;;;;;52.30;30.27;;;2.90;74.30;;;;;;5012262;28;25083;-75
2022/03/10 05:41:01;;;;;;;59.33;31.17;;;2.80;74.40;;;;;;5007853;28;25076;-75
2022/03/10 05:43:27;;;;;;;52.00;29.23;;;2.80;74.60;;;;;;5003386;28;25102;-75
2022/03/10 05:45:52;;;;;;;55.50;32.05;;;2.90;75.10;;;;;;5006062;28;25072;-75
2022/03/10 05:48:18;;;;;;;57.33;31.33;;;2.90;75.10;;;;;;5005432;28;25096;-74
2022/03/10 05:50:43;;;;;;;57.88;31.58;;;2.90;74.70;;;;;;5002933;28;25083;-76
2022/03/10 05:53:09;;;;;;;49.65;29.55;;;2.80;75.00;;;;;;5007492;28;25083;-74
2022/03/10 05:55:34;;;;;;;54.40;30.92;;;2.90;75.10;;;;;;5016263;28;25072;-74
2022/03/10 05:58:00;;;;;;;53.95;29.92;;;2.80;75.30;;;;;;5028057;28;25069;-75
2022/03/10 06:00:26;;;;;;;59.22;30.92;;;2.80;75.50;;;;;;5023993;28;25150;-76
2022/03/10 06:02:51;;;;;;;52.80;30.65;;;2.80;75.60;;;;;;5024970;28;25083;-74
2022/03/10 06:05:17;;;;;;;53.67;30.05;;;2.80;76.00;;;;;;5024528;28;25077;-75
2022/03/10 06:07:43;;;;;;;52.88;30.23;;;2.80;76.40;;;;;;5009609;28;25068;-75
2022/03/10 06:10:10;;;;;;;53.92;29.40;;;2.80;76.00;;;;;;5024725;28;25084;-74
2022/03/10 06:12:36;;;;;;;54.85;31.23;;;2.80;76.00;;;;;;5011686;28;25067;-75
2022/03/10 06:15:05;;;;;;;51.38;28.48;;;2.90;76.00;;;;;;5003012;28;25139;-73
2022/03/10 06:17:30;;;;;;;57.33;30.40;;;2.90;75.90;;;;;;5004102;28;25098;-74
2022/03/10 06:19:57;;;;;;;50.67;29.65;;;2.90;75.90;;;;;;5006651;28;25099;-74
2022/03/10 06:22:24;;;;;;;52.00;28.67;;;2.90;75.60;;;;;;5002171;28;25064;-75
2022/03/10 06:24:50;;;;;;;51.40;30.02;;;2.90;75.60;;;;;;5005143;28;25117;-75
2022/03/10 06:27:18;;;;;;;54.55;30.90;;;2.90;75.50;;;;;;5000230;28;25149;-72
2022/03/10 06:29:45;;;;;;;55.03;30.63;;;2.90;75.50;;;;;;5001222;28;25160;-75
2022/03/10 06:32:13;;;;;;;52.88;30.67;;;2.90;75.30;;;;;;5002781;28;25078;-74
2022/03/10 06:34:39;;;;;;;50.85;29.10;;;3.00;75.40;;;;;;4991664;28;25068;-74
2022/03/10 06:37:05;;;;;;;52.00;29.75;;;3.00;75.20;;;;;;5006028;28;25070;-75
2022/03/10 06:39:32;;;;;;;52.13;29.98;;;3.00;75.00;;;;;;5005244;28;25086;-73
2022/03/10 06:41:57;;;;;;;52.65;29.73;;;2.90;75.30;;;;;;5010011;28;25072;-73
2022/03/10 06:44:23;;;;;;;54.55;31.38;;;2.90;75.80;;;;;;4990717;28;25145;-73
2022/03/10 06:46:49;;;;;;;54.20;29.17;;;2.90;76.30;;;;;;5011816;28;25078;-76
2022/03/10 06:49:15;;;;;;;56.10;31.02;;;3.00;76.10;;;;;;5012405;28;25059;-75
2022/03/10 06:51:41;;;;;;;55.03;29.95;;;3.00;76.10;;;;;;5013539;28;25111;-75
2022/03/10 06:54:07;;;;;;;53.45;30.08;;;3.10;76.10;;;;;;5010389;28;25125;-76
2022/03/10 06:56:32;;;;;;;54.45;30.13;;;3.10;75.60;;;;;;4994670;28;25089;-73
2022/03/10 06:58:58;;;;;;;54.40;30.65;;;3.20;75.10;;;;;;5016343;28;25091;-75
2022/03/10 07:01:24;;;;;;;52.35;29.02;;;3.20;75.00;;;;;;5024406;28;25099;-74
2022/03/10 07:03:51;;;;;;;51.30;28.80;;;3.30;74.50;;;;;;5026102;28;25054;-73
2022/03/10 07:06:17;;;;;;;55.28;30.55;;;3.30;74.00;;;;;;5025292;28;25110;-74
2022/03/10 07:08:43;;;;;;;58.40;30.05;;;3.40;73.70;;;;;;5024546;28;25053;-73
2022/03/10 07:11:08;;;;;;;50.75;28.67;;;3.40;73.40;;;;;;5023495;28;25096;-74
2022/03/10 07:13:35;;;;;;;48.35;28.38;;;3.50;73.10;;;;;;5006202;28;25063;-73
2022/03/10 07:16:01;;;;;;;56.20;30.27;;;3.50;72.50;;;;;;5006331;28;25170;-73
2022/03/10 07:18:26;;;;;;;52.78;28.23;;;3.60;72.10;;;;;;5024175;28;25076;-73
2022/03/10 07:20:52;;;;;;;52.83;29.05;;;3.60;71.90;;;;;;5023397;28;25149;-75
2022/03/10 07:23:17;;;;;;;58.70;29.55;;;3.70;71.60;;;;;;5022386;28;25063;-75
2022/03/10 07:25:43;;;;;;;51.72;28.27;;;3.80;71.50;;;;;;5024076;28;25150;-75
2022/03/10 07:28:10;;;;;;;59.45;29.85;;;3.80;71.00;;;;;;5021011;28;25062;-78
2022/03/10 07:30:35;;;;;;;51.88;29.33;;;3.90;70.70;;;;;;5026673;28;25077;-76
2022/03/10 07:33:01;;;;;;;52.85;29.50;;;4.00;70.30;;;;;;5030662;28;25092;-74
2022/03/10 07:35:27;;;;;;;50.72;28.13;;;4.10;70.10;;;;;;5017251;28;25073;-76
2022/03/10 07:37:55;;;;;;;54.30;29.80;;;4.10;69.80;;;;;;5014783;28;25118;-73
2022/03/10 07:40:21;;;;;;;57.30;29.90;;;4.10;69.80;;;;;;5012698;28;25080;-75
2022/03/10 07:42:47;;;;;;;55.15;28.50;;;4.10;69.80;;;;;;5012734;28;25077;-75
2022/03/10 07:45:13;;;;;;;54.65;30.60;;;4.20;69.80;;;;;;5011653;28;25104;-72
2022/03/10 07:47:39;;;;;;;54.42;30.60;;;4.30;69.60;;;;;;5014183;28;25079;-75
2022/03/10 07:50:06;;;;;;;52.42;28.77;;;4.50;69.40;;;;;;5024451;28;25080;-76
2022/03/10 07:52:32;;;;;;;51.85;29.88;;;4.50;69.00;;;;;;5025161;28;25065;-74
2022/03/10 07:54:58;;;;;;;51.30;29.33;;;4.50;68.70;;;;;;5024516;28;25073;-74
2022/03/10 07:57:23;;;;;;;50.70;28.80;;;4.60;68.50;;;;;;5009332;28;25059;-74
2022/03/10 07:59:50;;;;;;;48.92;28.90;;;4.70;68.50;;;;;;4991198;28;25073;-72
2022/03/10 08:02:16;;;;;;;51.75;29.88;;;4.80;68.00;;;;;;5009199;28;25046;-74
2022/03/10 08:04:41;;;;;;;54.65;28.70;;;4.90;67.70;;;;;;4991153;28;25073;-75
2022/03/10 08:07:07;;;;;;;50.83;28.33;;;5.00;67.20;;;;;;4991746;28;25055;-73
2022/03/10 08:09:32;;;;;;;51.42;28.38;;;5.10;66.60;;;;;;5009325;28;25084;-74
2022/03/10 08:11:58;;;;;;;51.33;29.13;;;5.20;66.00;;;;;;5009237;28;25070;-74
2022/03/10 08:14:25;;;;;;;54.95;29.02;;;5.40;65.30;;;;;;5008648;28;25055;-76
2022/03/10 08:16:50;;;;;;;52.58;28.10;;;5.40;64.90;;;;;;5008673;28;25164;-75
2022/03/10 08:19:17;;;;;;;47.03;27.58;;;5.50;64.70;;;;;;5009875;28;25086;-74
2022/03/10 08:21:43;;;;;;;49.38;27.85;;;5.70;64.20;;;;;;5009636;28;25112;-73
2022/03/10 08:24:09;;;;;;;53.58;29.45;;;5.80;63.70;;;;;;5009359;28;25066;-75
2022/03/10 08:26:35;;;;;;;52.72;29.77;;;6.00;64.00;;;;;;5009307;28;25148;-74
2022/03/10 08:29:00;;;;;;;52.17;29.85;;;6.00;62.90;;;;;;5009089;28;25155;-74
2022/03/10 08:31:26;;;;;;;49.70;29.65;;;6.20;63.80;;;;;;5008563;28;25119;-74
2022/03/10 08:33:52;;;;;;;49.05;29.13;;;6.60;61.80;;;;;;5007948;28;25157;-73
2022/03/10 08:36:17;;;;;;;52.38;29.08;;;6.70;60.60;;;;;;5008966;28;25057;-73
2022/03/10 08:38:43;;;;;;;48.72;29.30;;;6.70;59.80;;;;;;5007973;28;25061;-74
2022/03/10 08:41:09;;;;;;;53.78;29.65;;;6.90;59.30;;;;;;5009459;28;25066;-72
2022/03/10 08:43:37;;;;;;;53.38;29.48;;;7.00;57.80;;;;;;5008734;28;25109;-74
2022/03/10 08:46:03;;;;;;;50.30;28.50;;;7.40;58.70;;;;;;5008337;28;25061;-73
2022/03/10 08:48:32;;;;;;;54.45;30.00;;;7.60;55.90;;;;;;5009669;28;25087;-74
2022/03/10 08:51:02;;;;;;;49.25;28.55;;;7.70;54.10;;;;;;5008653;28;25073;-74
2022/03/10 08:53:31;;;;;;;54.95;31.05;;;7.80;54.20;;;;;;5008541;28;25024;-74
2022/03/10 08:55:57;;;;;;;54.35;30.25;;;8.10;53.70;;;;;;5009117;28;25069;-76
2022/03/10 08:58:24;;;;;;;50.40;29.70;;;8.30;52.40;;;;;;5011181;28;25132;-73
2022/03/10 09:00:50;;;;;;;47.70;28.88;;;8.40;51.30;;;;;;5013532;28;25076;-73
2022/03/10 09:03:16;;;;;;;50.70;28.65;;;8.70;51.50;;;;;;5010485;28;25082;-73
2022/03/10 09:05:42;;;;;;;46.80;28.45;;;9.10;50.40;;;;;;5010429;28;25067;-73
2022/03/10 09:08:09;;;;;;;49.85;29.08;;;9.10;47.80;;;;;;5009758;28;25106;-73
2022/03/10 09:10:35;;;;;;;49.75;28.20;;;9.00;48.40;;;;;;5009559;28;25083;-73
2022/03/10 09:13:00;;;;;;;48.42;27.27;;;9.20;46.10;;;;;;5009305;28;25074;-73
2022/03/10 09:15:29;;;;;;;48.15;28.77;;;9.20;46.60;;;;;;5010013;28;25059;-74
2022/03/10 09:17:55;;;;;;;44.67;27.55;;;9.30;46.70;;;;;;5009400;28;25063;-72
2022/03/10 09:20:21;;;;;;;45.78;27.63;;;9.60;45.50;;;;;;5008920;28;25162;-74
2022/03/10 09:22:47;;;;;;;44.05;26.58;;;9.90;44.10;;;;;;5009742;28;25062;-73
2022/03/10 09:25:13;;;;;;;48.47;27.48;;;10.30;42.60;;;;;;5009051;28;25071;-74
2022/03/10 09:27:40;;;;;;;51.05;27.38;;;10.20;40.60;;;;;;5009059;28;25053;-72
2022/03/10 09:30:10;;;;;;;45.53;27.35;;;10.20;42.20;;;;;;5011086;28;25067;-73
2022/03/10 09:32:37;;;;;;;45.35;27.77;;;10.20;41.00;;;;;;5009916;28;25069;-71
2022/03/10 09:35:04;;;;;;;48.58;28.27;;;10.10;41.20;;;;;;5012525;28;25074;-75
2022/03/10 09:37:30;;;;;;;46.97;27.67;;;10.30;40.60;;;;;;5014866;28;25163;-74
2022/03/10 09:39:55;;;;;;;45.80;27.40;;;10.40;41.60;;;;;;5013205;28;25071;-73
2022/03/10 09:42:26;;;;;;;43.22;26.35;;;10.70;41.40;;;;;;4996321;28;25111;-71
2022/03/10 09:44:54;;;;;;;45.10;25.52;;;10.90;38.80;;;;;;5024037;28;25072;-73
2022/03/10 09:47:19;;;;;;;42.47;25.17;;;11.00;37.90;;;;;;5034877;28;25073;-73
2022/03/10 09:49:46;;;;;;;42.75;26.40;;;11.40;36.10;;;;;;5038947;28;25092;-73
2022/03/10 09:52:12;;;;;;;41.70;24.67;;;11.70;35.70;;;;;;5039687;28;25060;-74
2022/03/10 09:54:39;;;;;;;45.20;26.30;;;12.00;34.40;;;;;;5039406;28;25077;-73
2022/03/10 09:57:07;;;;;;;46.65;26.40;;;11.40;32.90;;;;;;5022042;28;25078;-73
2022/03/10 09:59:32;;;;;;;44.30;26.02;;;11.30;35.60;;;;;;5021042;28;25071;-74
2022/03/10 10:01:58;;;;;;;47.85;27.02;;;11.70;33.60;;;;;;5037456;28;25064;-73
2022/03/10 10:04:24;;;;;;;43.72;24.77;;;11.80;33.00;;;;;;5019417;28;25078;-72
2022/03/10 10:07:04;;;;;;;43.13;26.40;;;11.50;34.80;;;;;;5017713;28;25075;-71
2022/03/10 10:09:41;;;;;;;42.55;25.25;;;11.70;34.50;;;;;;5022896;28;25061;-72
2022/03/10 10:12:07;;;;;;;41.40;25.55;;;11.90;32.70;;;;;;5035675;28;25072;-72
2022/03/10 10:14:41;;;;;;;41.00;25.95;;;12.20;33.40;;;;;;5033541;28;25059;-73
2022/03/10 10:17:07;;;;;;;41.40;25.83;;;12.40;33.50;;;;;;5011902;28;25069;-72
2022/03/10 10:19:36;;;;;;;42.63;26.23;;;12.50;31.70;;;;;;5011892;28;25073;-72
2022/03/10 10:22:13;;;;;;;41.72;24.83;;;12.40;31.00;;;;;;5011666;28;25088;-72
2022/03/10 10:24:39;;;;;;;45.05;26.15;;;12.00;33.50;;;;;;5011867;28;25055;-73
2022/03/10 10:27:19;;;;;;;42.20;25.13;;;12.30;31.60;;;;;;4997455;28;25107;-71
2022/03/10 10:30:06;;;;;;;42.63;25.20;;;12.40;31.70;;;;;;5013699;28;25143;-73
2022/03/10 10:32:49;;;;;;;41.92;25.88;;;12.70;30.40;;;;;;4999484;28;25078;-72
2022/03/10 10:35:20;;;;;;;;;;;12.50;30.60;;;;;;5013779;28;25059;-71
2022/03/10 10:37:49;;;;;;;40.97;24.17;;;12.50;30.70;;;;;;5011564;28;24088;-74
2022/03/10 10:40:21;;;;;;;43.80;25.73;;;12.90;30.50;;;;;;5012244;28;25055;-71
2022/03/10 10:42:47;;;;;;;41.53;24.58;;;13.30;29.20;;;;;;5011840;28;25163;-71
2022/03/10 10:45:33;;;;;;;41.55;24.48;;;13.50;28.20;;;;;;5011671;28;25065;-74
2022/03/10 10:48:03;;;;;;;44.17;25.75;;;13.60;27.90;;;;;;4993090;28;25107;-73
2022/03/10 10:50:37;;;;;;;46.60;26.40;;;13.40;28.20;;;;;;5010333;28;25076;-73
2022/03/10 10:53:04;;;;;;;38.42;24.80;;;13.40;27.60;;;;;;4993798;28;25136;-73
2022/03/10 10:55:36;;;;;;;37.88;22.98;;;13.30;28.50;;;;;;5011674;28;25080;-71
2022/03/10 10:58:13;;;;;;;35.35;23.45;;;13.60;28.00;;;;;;5010741;28;25113;-72
2022/03/10 11:00:42;;;;;;;36.35;23.08;;;14.00;27.00;;;;;;5010892;28;25106;-71
2022/03/10 11:03:37;;;;;;;37.63;23.42;;;14.00;25.40;;;;;;5011168;28;25064;-70
2022/03/10 11:06:02;;;;;;;38.50;23.85;;;14.10;26.40;;;;;;5005091;28;25105;-72
2022/03/10 11:08:28;;;;;;;37.38;23.27;;;14.40;26.10;;;;;;5010498;28;25106;-72
2022/03/10 11:10:54;;;;;;;33.55;22.63;;;14.50;25.50;;;;;;5011206;28;25074;-71
2022/03/10 11:13:20;;;;;;;37.50;22.65;;;14.30;26.00;;;;;;5010424;28;25046;-74
2022/03/10 11:15:46;;;;;;;37.60;23.38;;;14.60;24.60;;;;;;5011132;28;25074;-72
2022/03/10 11:18:13;;;;;;;35.22;22.50;;;14.80;24.10;;;;;;5010741;28;25078;-72
2022/03/10 11:20:42;;;;;;;39.45;23.13;;;15.00;22.50;;;;;;5010828;28;25067;-75
2022/03/10 11:23:25;;;;;;;39.45;23.90;;;15.30;21.40;;;;;;5009531;28;25141;-72
2022/03/10 11:26:32;;;;;;;33.67;21.80;;;15.40;20.90;;;;;;5011125;28;25054;-73
2022/03/10 11:28:59;;;;;;;32.90;21.98;;;15.80;20.60;;;;;;5012914;28;25058;-72
2022/03/10 11:31:26;;;;;;;37.95;21.90;;;15.40;19.50;;;;;;5011789;28;25077;-70
2022/03/10 11:33:52;;;;;;;34.75;21.83;;;15.60;18.80;;;;;;4992460;28;25149;-73
2022/03/10 11:36:32;;;;;;;36.80;20.75;;;15.90;14.60;;;;;;5010298;28;25072;-72
2022/03/10 11:39:12;;;;;;;35.38;21.25;;;15.50;15.10;;;;;;5018511;28;25077;-72
2022/03/10 11:41:46;;;;;;;33.92;19.75;;;16.10;15.50;;;;;;5015085;28;25084;-72
2022/03/10 11:44:12;;;;;;;31.40;20.15;;;15.80;11.70;;;;;;5011065;28;25128;-73
2022/03/10 11:46:52;;;;;;;31.60;20.60;;;15.60;13.00;;;;;;5011318;28;25130;-71
2022/03/10 11:49:17;;;;;;;38.65;21.95;;;15.80;16.60;;;;;;5014433;28;25067;-72
2022/03/10 11:51:53;;;;;;;33.47;20.90;;;16.10;15.70;;;;;;5015815;28;25058;-72
2022/03/10 11:54:28;;;;;;;35.50;21.23;;;16.20;14.50;;;;;;5014831;28;25079;-73
2022/03/10 11:56:57;;;;;;;34.60;21.55;;;16.40;13.20;;;;;;5018841;28;25098;-71
2022/03/10 11:59:26;;;;;;;34.75;22.35;;;17.00;11.40;;;;;;5018181;28;25134;-71
2022/03/10 12:01:54;;;;;;;36.53;21.27;;;16.80;10.10;;;;;;5020525;28;25072;-71
2022/03/10 12:04:21;;;;;;;31.95;20.42;;;16.30;9.50;;;;;;5023400;28;25088;-70
2022/03/10 12:06:56;;;;;;;33.65;21.17;;;16.40;9.30;;;;;;5021299;28;25068;-72
2022/03/10 12:09:31;;;;;;;31.77;19.88;;;16.70;9.30;;;;;;5025525;28;25064;-72
2022/03/10 12:12:18;;;;;;;34.03;20.98;;;16.60;7.40;;;;;;5031404;28;25064;-72
2022/03/10 12:14:45;;;;;;;34.75;20.40;;;16.60;8.30;;;;;;5034510;28;25080;-72
2022/03/10 12:17:42;;;;;;;36.88;20.80;;;16.80;8.10;;;;;;5037039;28;25074;-73
2022/03/10 12:20:15;;;;;;;31.10;18.45;;;17.00;5.40;;;;;;5035124;28;25092;-72
2022/03/10 12:23:03;;;;;;;33.75;20.25;;;17.00;8.20;;;;;;5032524;28;25069;-72
2022/03/10 12:25:37;;;;;;;36.42;21.58;;;17.70;6.20;;;;;;5013323;28;25076;-71
2022/03/10 12:28:02;;;;;;;32.55;18.88;;;17.20;5.50;;;;;;5010548;28;25080;-73
2022/03/10 12:30:30;;;;;;;29.95;19.63;;;17.20;5.00;;;;;;5010433;28;25095;-72
2022/03/10 12:32:57;;;;;;;33.78;19.45;;;17.30;4.60;;;;;;5010261;28;25084;-71
2022/03/10 12:35:31;;;;;;;31.95;19.33;;;16.90;6.30;;;;;;5009596;28;25105;-72
2022/03/10 12:37:56;;;;;;;32.83;19.52;;;17.20;5.60;;;;;;4990166;28;25073;-70
2022/03/10 12:40:27;;;;;;;30.60;19.27;;;17.20;6.00;;;;;;4990571;28;25109;-72
2022/03/10 12:43:01;;;;;;;34.40;20.13;;;17.50;5.80;;;;;;4989615;28;25071;-75